sensor_id;sensor_type;location;lat;lon;timestamp;P1;durP1;ratioP1;P2;durP2;ratioP2
67554;SDS011;54385;53.516;49.456;2024-01-27T00:00:20;0.95;;;0.65;;
67554;SDS011;54385;53.516;49.456;2024-01-27T00:02:47;0.98;;;0.70;;
67554;SDS011;54385;53.516;49.456;2024-01-27T00:05:14;1.20;;;0.80;;
67554;SDS011;54385;53.516;49.456;2024-01-27T00:07:40;0.93;;;0.80;;
67554;SDS011;54385;53.516;49.456;2024-01-27T00:10:07;1.10;;;0.80;;
67554;SDS011;54385;53.516;49.456;2024-01-27T00:12:34;0.95;;;0.77;;
67554;SDS011;54385;53.516;49.456;2024-01-27T00:15:00;0.95;;;0.73;;
67554;SDS011;54385;53.516;49.456;2024-01-27T00:17:27;0.98;;;0.70;;
67554;SDS011;54385;53.516;49.456;2024-01-27T00:19:54;0.60;;;0.60;;
67554;SDS011;54385;53.516;49.456;2024-01-27T00:22:20;0.75;;;0.70;;
67554;SDS011;54385;53.516;49.456;2024-01-27T00:24:47;0.68;;;0.50;;
67554;SDS011;54385;53.516;49.456;2024-01-27T00:27:14;1.20;;;0.85;;
67554;SDS011;54385;53.516;49.456;2024-01-27T00:29:41;0.70;;;0.60;;
67554;SDS011;54385;53.516;49.456;2024-01-27T00:32:07;1.58;;;0.90;;
67554;SDS011;54385;53.516;49.456;2024-01-27T00:34:34;0.90;;;0.80;;
67554;SDS011;54385;53.516;49.456;2024-01-27T00:37:00;0.93;;;0.60;;
67554;SDS011;54385;53.516;49.456;2024-01-27T00:39:27;1.02;;;0.80;;
67554;SDS011;54385;53.516;49.456;2024-01-27T00:41:54;0.80;;;0.70;;
67554;SDS011;54385;53.516;49.456;2024-01-27T00:44:21;0.90;;;0.65;;
67554;SDS011;54385;53.516;49.456;2024-01-27T00:46:48;1.10;;;0.70;;
67554;SDS011;54385;53.516;49.456;2024-01-27T00:49:15;0.77;;;0.70;;
67554;SDS011;54385;53.516;49.456;2024-01-27T00:51:42;0.80;;;0.60;;
67554;SDS011;54385;53.516;49.456;2024-01-27T00:54:08;1.08;;;0.75;;
67554;SDS011;54385;53.516;49.456;2024-01-27T00:56:35;1.23;;;0.80;;
67554;SDS011;54385;53.516;49.456;2024-01-27T00:59:02;1.00;;;0.70;;
67554;SDS011;54385;53.516;49.456;2024-01-27T01:01:29;0.95;;;0.80;;
67554;SDS011;54385;53.516;49.456;2024-01-27T01:03:56;1.15;;;0.60;;
67554;SDS011;54385;53.516;49.456;2024-01-27T01:06:23;0.70;;;0.60;;
67554;SDS011;54385;53.516;49.456;2024-01-27T01:08:50;0.82;;;0.50;;
67554;SDS011;54385;53.516;49.456;2024-01-27T01:11:19;0.90;;;0.70;;
67554;SDS011;54385;53.516;49.456;2024-01-27T01:13:46;0.85;;;0.75;;
67554;SDS011;54385;53.516;49.456;2024-01-27T01:16:13;0.95;;;0.70;;
67554;SDS011;54385;53.516;49.456;2024-01-27T01:18:40;0.60;;;0.55;;
67554;SDS011;54385;53.516;49.456;2024-01-27T01:21:06;0.80;;;0.60;;
67554;SDS011;54385;53.516;49.456;2024-01-27T01:23:33;0.88;;;0.68;;
67554;SDS011;54385;53.516;49.456;2024-01-27T01:26:00;0.80;;;0.60;;
67554;SDS011;54385;53.516;49.456;2024-01-27T01:28:27;1.02;;;0.77;;
67554;SDS011;54385;53.516;49.456;2024-01-27T01:30:54;0.73;;;0.60;;
67554;SDS011;54385;53.516;49.456;2024-01-27T01:33:22;1.02;;;0.60;;
67554;SDS011;54385;53.516;49.456;2024-01-27T01:35:49;0.68;;;0.57;;
67554;SDS011;54385;53.516;49.456;2024-01-27T01:38:15;0.90;;;0.80;;
67554;SDS011;54385;53.516;49.456;2024-01-27T01:40:42;0.80;;;0.60;;
67554;SDS011;54385;53.516;49.456;2024-01-27T01:43:12;0.68;;;0.65;;
67554;SDS011;54385;53.516;49.456;2024-01-27T01:45:39;0.68;;;0.55;;
67554;SDS011;54385;53.516;49.456;2024-01-27T01:48:07;1.13;;;0.77;;
67554;SDS011;54385;53.516;49.456;2024-01-27T01:50:34;0.98;;;0.50;;
67554;SDS011;54385;53.516;49.456;2024-01-27T01:53:02;1.95;;;0.60;;
67554;SDS011;54385;53.516;49.456;2024-01-27T01:55:29;0.65;;;0.60;;
67554;SDS011;54385;53.516;49.456;2024-01-27T01:57:56;0.73;;;0.60;;
67554;SDS011;54385;53.516;49.456;2024-01-27T02:00:23;1.60;;;0.82;;
67554;SDS011;54385;53.516;49.456;2024-01-27T02:02:49;0.82;;;0.60;;
67554;SDS011;54385;53.516;49.456;2024-01-27T02:05:16;1.17;;;0.50;;
67554;SDS011;54385;53.516;49.456;2024-01-27T02:07:43;0.90;;;0.70;;
67554;SDS011;54385;53.516;49.456;2024-01-27T02:10:14;0.75;;;0.55;;
67554;SDS011;54385;53.516;49.456;2024-01-27T02:12:42;0.70;;;0.57;;
67554;SDS011;54385;53.516;49.456;2024-01-27T02:15:10;0.80;;;0.70;;
67554;SDS011;54385;53.516;49.456;2024-01-27T02:17:39;0.80;;;0.60;;
67554;SDS011;54385;53.516;49.456;2024-01-27T02:20:07;0.65;;;0.57;;
67554;SDS011;54385;53.516;49.456;2024-01-27T02:22:34;0.47;;;0.47;;
67554;SDS011;54385;53.516;49.456;2024-01-27T02:25:05;0.60;;;0.47;;
67554;SDS011;54385;53.516;49.456;2024-01-27T02:27:32;0.88;;;0.57;;
67554;SDS011;54385;53.516;49.456;2024-01-27T02:29:58;0.63;;;0.60;;
67554;SDS011;54385;53.516;49.456;2024-01-27T02:32:25;0.80;;;0.60;;
67554;SDS011;54385;53.516;49.456;2024-01-27T02:34:52;0.90;;;0.65;;
67554;SDS011;54385;53.516;49.456;2024-01-27T02:37:19;0.73;;;0.60;;
67554;SDS011;54385;53.516;49.456;2024-01-27T02:39:46;0.77;;;0.57;;
67554;SDS011;54385;53.516;49.456;2024-01-27T02:42:13;1.55;;;0.85;;
67554;SDS011;54385;53.516;49.456;2024-01-27T02:44:40;0.77;;;0.70;;
67554;SDS011;54385;53.516;49.456;2024-01-27T02:47:07;0.68;;;0.60;;
67554;SDS011;54385;53.516;49.456;2024-01-27T02:49:36;0.80;;;0.60;;
67554;SDS011;54385;53.516;49.456;2024-01-27T02:52:06;1.33;;;0.77;;
67554;SDS011;54385;53.516;49.456;2024-01-27T02:54:33;0.95;;;0.80;;
67554;SDS011;54385;53.516;49.456;2024-01-27T02:57:00;0.60;;;0.50;;
67554;SDS011;54385;53.516;49.456;2024-01-27T02:59:27;1.40;;;0.80;;
67554;SDS011;54385;53.516;49.456;2024-01-27T03:01:53;1.40;;;0.70;;
67554;SDS011;54385;53.516;49.456;2024-01-27T03:04:20;0.90;;;0.70;;
67554;SDS011;54385;53.516;49.456;2024-01-27T03:06:48;0.88;;;0.63;;
67554;SDS011;54385;53.516;49.456;2024-01-27T03:09:14;1.27;;;0.60;;
67554;SDS011;54385;53.516;49.456;2024-01-27T03:11:41;0.80;;;0.50;;
67554;SDS011;54385;53.516;49.456;2024-01-27T03:14:08;1.30;;;0.70;;
67554;SDS011;54385;53.516;49.456;2024-01-27T03:16:37;0.65;;;0.60;;
67554;SDS011;54385;53.516;49.456;2024-01-27T03:19:07;0.45;;;0.40;;
67554;SDS011;54385;53.516;49.456;2024-01-27T03:21:33;0.82;;;0.70;;
67554;SDS011;54385;53.516;49.456;2024-01-27T03:24:00;0.88;;;0.80;;
67554;SDS011;54385;53.516;49.456;2024-01-27T03:26:27;0.73;;;0.70;;
67554;SDS011;54385;53.516;49.456;2024-01-27T03:28:54;0.68;;;0.60;;
67554;SDS011;54385;53.516;49.456;2024-01-27T03:31:21;0.90;;;0.60;;
67554;SDS011;54385;53.516;49.456;2024-01-27T03:33:48;0.90;;;0.60;;
67554;SDS011;54385;53.516;49.456;2024-01-27T03:36:18;0.60;;;0.60;;
67554;SDS011;54385;53.516;49.456;2024-01-27T03:38:48;0.60;;;0.57;;
67554;SDS011;54385;53.516;49.456;2024-01-27T03:41:15;0.47;;;0.40;;
67554;SDS011;54385;53.516;49.456;2024-01-27T03:43:42;1.02;;;0.60;;
67554;SDS011;54385;53.516;49.456;2024-01-27T03:46:10;1.05;;;0.70;;
67554;SDS011;54385;53.516;49.456;2024-01-27T03:48:37;0.50;;;0.50;;
67554;SDS011;54385;53.516;49.456;2024-01-27T03:51:03;0.70;;;0.50;;
67554;SDS011;54385;53.516;49.456;2024-01-27T03:53:30;1.05;;;0.70;;
67554;SDS011;54385;53.516;49.456;2024-01-27T03:55:58;0.77;;;0.70;;
67554;SDS011;54385;53.516;49.456;2024-01-27T03:58:25;1.05;;;0.60;;
67554;SDS011;54385;53.516;49.456;2024-01-27T04:00:52;1.30;;;0.70;;
67554;SDS011;54385;53.516;49.456;2024-01-27T04:03:22;0.65;;;0.60;;
67554;SDS011;54385;53.516;49.456;2024-01-27T04:05:52;0.65;;;0.47;;
67554;SDS011;54385;53.516;49.456;2024-01-27T04:08:19;0.77;;;0.60;;
67554;SDS011;54385;53.516;49.456;2024-01-27T04:10:46;0.85;;;0.60;;
67554;SDS011;54385;53.516;49.456;2024-01-27T04:13:13;0.60;;;0.50;;
67554;SDS011;54385;53.516;49.456;2024-01-27T04:15:40;0.80;;;0.57;;
67554;SDS011;54385;53.516;49.456;2024-01-27T04:18:07;0.52;;;0.50;;
67554;SDS011;54385;53.516;49.456;2024-01-27T04:20:38;0.65;;;0.65;;
67554;SDS011;54385;53.516;49.456;2024-01-27T04:23:05;0.70;;;0.60;;
67554;SDS011;54385;53.516;49.456;2024-01-27T04:25:32;0.77;;;0.55;;
67554;SDS011;54385;53.516;49.456;2024-01-27T04:27:59;0.82;;;0.50;;
67554;SDS011;54385;53.516;49.456;2024-01-27T04:30:26;0.75;;;0.50;;
67554;SDS011;54385;53.516;49.456;2024-01-27T04:32:53;0.50;;;0.40;;
67554;SDS011;54385;53.516;49.456;2024-01-27T04:35:20;0.90;;;0.65;;
67554;SDS011;54385;53.516;49.456;2024-01-27T04:37:47;0.77;;;0.70;;
67554;SDS011;54385;53.516;49.456;2024-01-27T04:40:14;0.57;;;0.50;;
67554;SDS011;54385;53.516;49.456;2024-01-27T04:42:41;0.77;;;0.50;;
67554;SDS011;54385;53.516;49.456;2024-01-27T04:45:08;2.50;;;0.60;;
67554;SDS011;54385;53.516;49.456;2024-01-27T04:47:35;0.80;;;0.60;;
67554;SDS011;54385;53.516;49.456;2024-01-27T04:50:02;0.77;;;0.60;;
67554;SDS011;54385;53.516;49.456;2024-01-27T04:52:29;0.60;;;0.60;;
67554;SDS011;54385;53.516;49.456;2024-01-27T04:54:56;0.98;;;0.60;;
67554;SDS011;54385;53.516;49.456;2024-01-27T04:57:22;0.60;;;0.43;;
67554;SDS011;54385;53.516;49.456;2024-01-27T04:59:49;0.55;;;0.55;;
67554;SDS011;54385;53.516;49.456;2024-01-27T05:02:15;1.00;;;0.68;;
67554;SDS011;54385;53.516;49.456;2024-01-27T05:04:42;0.40;;;0.40;;
67554;SDS011;54385;53.516;49.456;2024-01-27T05:07:09;1.02;;;0.47;;
67554;SDS011;54385;53.516;49.456;2024-01-27T05:09:35;0.80;;;0.60;;
67554;SDS011;54385;53.516;49.456;2024-01-27T05:12:02;1.08;;;0.60;;
67554;SDS011;54385;53.516;49.456;2024-01-27T05:14:29;0.57;;;0.50;;
67554;SDS011;54385;53.516;49.456;2024-01-27T05:16:55;1.10;;;0.80;;
67554;SDS011;54385;53.516;49.456;2024-01-27T05:19:22;0.60;;;0.50;;
67554;SDS011;54385;53.516;49.456;2024-01-27T05:21:49;0.73;;;0.47;;
67554;SDS011;54385;53.516;49.456;2024-01-27T05:24:15;1.05;;;0.60;;
67554;SDS011;54385;53.516;49.456;2024-01-27T05:26:44;0.68;;;0.60;;
67554;SDS011;54385;53.516;49.456;2024-01-27T05:29:13;0.90;;;0.60;;
67554;SDS011;54385;53.516;49.456;2024-01-27T05:31:43;1.15;;;0.60;;
67554;SDS011;54385;53.516;49.456;2024-01-27T05:34:13;0.88;;;0.70;;
67554;SDS011;54385;53.516;49.456;2024-01-27T05:36:39;1.05;;;0.77;;
67554;SDS011;54385;53.516;49.456;2024-01-27T05:39:09;0.60;;;0.50;;
67554;SDS011;54385;53.516;49.456;2024-01-27T05:41:36;1.40;;;0.63;;
67554;SDS011;54385;53.516;49.456;2024-01-27T05:44:03;1.10;;;0.65;;
67554;SDS011;54385;53.516;49.456;2024-01-27T05:46:30;0.85;;;0.50;;
67554;SDS011;54385;53.516;49.456;2024-01-27T05:48:57;0.73;;;0.60;;
67554;SDS011;54385;53.516;49.456;2024-01-27T05:51:29;1.15;;;0.80;;
67554;SDS011;54385;53.516;49.456;2024-01-27T05:54:00;0.70;;;0.57;;
67554;SDS011;54385;53.516;49.456;2024-01-27T05:56:27;0.85;;;0.70;;
67554;SDS011;54385;53.516;49.456;2024-01-27T05:58:54;0.80;;;0.68;;
67554;SDS011;54385;53.516;49.456;2024-01-27T06:01:21;1.25;;;0.90;;
67554;SDS011;54385;53.516;49.456;2024-01-27T06:03:47;1.00;;;0.70;;
67554;SDS011;54385;53.516;49.456;2024-01-27T06:06:14;1.00;;;0.80;;
67554;SDS011;54385;53.516;49.456;2024-01-27T06:08:44;1.00;;;0.73;;
67554;SDS011;54385;53.516;49.456;2024-01-27T06:11:10;1.10;;;0.90;;
67554;SDS011;54385;53.516;49.456;2024-01-27T06:13:37;1.55;;;0.80;;
67554;SDS011;54385;53.516;49.456;2024-01-27T06:16:08;1.10;;;0.70;;
67554;SDS011;54385;53.516;49.456;2024-01-27T06:18:35;0.95;;;0.60;;
67554;SDS011;54385;53.516;49.456;2024-01-27T06:21:03;1.00;;;0.80;;
67554;SDS011;54385;53.516;49.456;2024-01-27T06:23:31;0.90;;;0.70;;
67554;SDS011;54385;53.516;49.456;2024-01-27T06:25:59;1.00;;;0.70;;
67554;SDS011;54385;53.516;49.456;2024-01-27T06:28:30;0.85;;;0.60;;
67554;SDS011;54385;53.516;49.456;2024-01-27T06:30:56;0.70;;;0.60;;
67554;SDS011;54385;53.516;49.456;2024-01-27T06:33:24;0.93;;;0.73;;
67554;SDS011;54385;53.516;49.456;2024-01-27T06:35:50;1.17;;;0.90;;
67554;SDS011;54385;53.516;49.456;2024-01-27T06:38:17;0.95;;;0.77;;
67554;SDS011;54385;53.516;49.456;2024-01-27T06:40:45;1.05;;;0.80;;
67554;SDS011;54385;53.516;49.456;2024-01-27T06:43:12;0.93;;;0.77;;
67554;SDS011;54385;53.516;49.456;2024-01-27T06:45:39;0.90;;;0.80;;
67554;SDS011;54385;53.516;49.456;2024-01-27T06:48:09;1.25;;;0.90;;
67554;SDS011;54385;53.516;49.456;2024-01-27T06:50:36;1.35;;;0.90;;
67554;SDS011;54385;53.516;49.456;2024-01-27T06:53:02;1.08;;;0.80;;
67554;SDS011;54385;53.516;49.456;2024-01-27T06:55:29;1.13;;;0.98;;
67554;SDS011;54385;53.516;49.456;2024-01-27T06:57:56;1.30;;;0.70;;
67554;SDS011;54385;53.516;49.456;2024-01-27T07:00:24;1.27;;;0.90;;
67554;SDS011;54385;53.516;49.456;2024-01-27T07:02:50;1.27;;;1.00;;
67554;SDS011;54385;53.516;49.456;2024-01-27T07:05:18;1.30;;;0.90;;
67554;SDS011;54385;53.516;49.456;2024-01-27T07:07:48;1.63;;;0.80;;
67554;SDS011;54385;53.516;49.456;2024-01-27T07:10:15;1.65;;;1.13;;
67554;SDS011;54385;53.516;49.456;2024-01-27T07:12:44;1.63;;;0.93;;
67554;SDS011;54385;53.516;49.456;2024-01-27T07:15:11;1.00;;;0.80;;
67554;SDS011;54385;53.516;49.456;2024-01-27T07:17:38;1.50;;;1.05;;
67554;SDS011;54385;53.516;49.456;2024-01-27T07:20:04;1.70;;;1.00;;
67554;SDS011;54385;53.516;49.456;2024-01-27T07:22:32;1.13;;;0.85;;
67554;SDS011;54385;53.516;49.456;2024-01-27T07:24:59;2.00;;;1.20;;
67554;SDS011;54385;53.516;49.456;2024-01-27T07:27:26;1.60;;;1.17;;
67554;SDS011;54385;53.516;49.456;2024-01-27T07:29:54;2.03;;;1.08;;
67554;SDS011;54385;53.516;49.456;2024-01-27T07:32:20;2.58;;;1.10;;
67554;SDS011;54385;53.516;49.456;2024-01-27T07:34:48;1.60;;;1.10;;
67554;SDS011;54385;53.516;49.456;2024-01-27T07:37:14;1.60;;;1.10;;
67554;SDS011;54385;53.516;49.456;2024-01-27T07:39:41;2.05;;;1.20;;
67554;SDS011;54385;53.516;49.456;2024-01-27T07:42:08;2.30;;;1.20;;
67554;SDS011;54385;53.516;49.456;2024-01-27T07:44:35;1.70;;;1.15;;
67554;SDS011;54385;53.516;49.456;2024-01-27T07:47:03;1.60;;;1.10;;
67554;SDS011;54385;53.516;49.456;2024-01-27T07:49:32;1.38;;;1.15;;
67554;SDS011;54385;53.516;49.456;2024-01-27T07:51:59;1.77;;;1.30;;
67554;SDS011;54385;53.516;49.456;2024-01-27T07:54:26;1.80;;;1.40;;
67554;SDS011;54385;53.516;49.456;2024-01-27T07:56:56;2.00;;;1.20;;
67554;SDS011;54385;53.516;49.456;2024-01-27T07:59:22;2.17;;;1.38;;
67554;SDS011;54385;53.516;49.456;2024-01-27T08:01:49;1.88;;;1.33;;
67554;SDS011;54385;53.516;49.456;2024-01-27T08:04:15;2.22;;;1.17;;
67554;SDS011;54385;53.516;49.456;2024-01-27T08:06:49;2.47;;;1.40;;
67554;SDS011;54385;53.516;49.456;2024-01-27T08:09:17;2.17;;;1.42;;
67554;SDS011;54385;53.516;49.456;2024-01-27T08:11:44;1.67;;;1.17;;
67554;SDS011;54385;53.516;49.456;2024-01-27T08:14:10;2.17;;;1.38;;
67554;SDS011;54385;53.516;49.456;2024-01-27T08:16:37;2.15;;;1.42;;
67554;SDS011;54385;53.516;49.456;2024-01-27T08:19:07;2.55;;;1.30;;
67554;SDS011;54385;53.516;49.456;2024-01-27T08:21:38;2.10;;;1.30;;
67554;SDS011;54385;53.516;49.456;2024-01-27T08:24:05;1.67;;;1.20;;
67554;SDS011;54385;53.516;49.456;2024-01-27T08:26:31;2.25;;;1.42;;
67554;SDS011;54385;53.516;49.456;2024-01-27T08:28:58;1.80;;;1.40;;
67554;SDS011;54385;53.516;49.456;2024-01-27T08:31:25;1.70;;;1.17;;
67554;SDS011;54385;53.516;49.456;2024-01-27T08:33:52;2.28;;;1.75;;
67554;SDS011;54385;53.516;49.456;2024-01-27T08:36:19;2.75;;;1.50;;
67554;SDS011;54385;53.516;49.456;2024-01-27T08:38:45;3.05;;;1.50;;
67554;SDS011;54385;53.516;49.456;2024-01-27T08:41:12;2.58;;;1.77;;
67554;SDS011;54385;53.516;49.456;2024-01-27T08:43:39;1.73;;;1.40;;
67554;SDS011;54385;53.516;49.456;2024-01-27T08:46:08;1.88;;;1.50;;
67554;SDS011;54385;53.516;49.456;2024-01-27T08:48:38;1.98;;;1.58;;
67554;SDS011;54385;53.516;49.456;2024-01-27T08:51:07;2.35;;;1.65;;
67554;SDS011;54385;53.516;49.456;2024-01-27T08:53:35;1.42;;;1.33;;
67554;SDS011;54385;53.516;49.456;2024-01-27T08:56:02;1.98;;;1.40;;
67554;SDS011;54385;53.516;49.456;2024-01-27T08:58:29;2.50;;;1.50;;
67554;SDS011;54385;53.516;49.456;2024-01-27T09:00:57;2.53;;;1.80;;
67554;SDS011;54385;53.516;49.456;2024-01-27T09:03:26;1.90;;;1.67;;
67554;SDS011;54385;53.516;49.456;2024-01-27T09:05:53;1.80;;;1.40;;
67554;SDS011;54385;53.516;49.456;2024-01-27T09:08:19;1.75;;;1.27;;
67554;SDS011;54385;53.516;49.456;2024-01-27T09:10:46;2.33;;;1.70;;
67554;SDS011;54385;53.516;49.456;2024-01-27T09:13:16;1.83;;;1.50;;
67554;SDS011;54385;53.516;49.456;2024-01-27T09:15:42;2.50;;;1.50;;
67554;SDS011;54385;53.516;49.456;2024-01-27T09:18:10;3.08;;;1.70;;
67554;SDS011;54385;53.516;49.456;2024-01-27T09:20:36;3.10;;;1.58;;
67554;SDS011;54385;53.516;49.456;2024-01-27T09:23:03;2.75;;;1.80;;
67554;SDS011;54385;53.516;49.456;2024-01-27T09:25:30;2.35;;;1.60;;
67554;SDS011;54385;53.516;49.456;2024-01-27T09:28:05;2.40;;;1.70;;
67554;SDS011;54385;53.516;49.456;2024-01-27T09:30:49;2.42;;;1.58;;
67554;SDS011;54385;53.516;49.456;2024-01-27T09:33:15;3.00;;;1.73;;
67554;SDS011;54385;53.516;49.456;2024-01-27T09:35:45;2.20;;;1.73;;
67554;SDS011;54385;53.516;49.456;2024-01-27T09:38:12;2.47;;;1.90;;
67554;SDS011;54385;53.516;49.456;2024-01-27T09:40:42;2.25;;;1.75;;
67554;SDS011;54385;53.516;49.456;2024-01-27T09:43:10;2.65;;;1.73;;
67554;SDS011;54385;53.516;49.456;2024-01-27T09:45:40;2.50;;;1.58;;
67554;SDS011;54385;53.516;49.456;2024-01-27T09:48:08;2.70;;;1.80;;
67554;SDS011;54385;53.516;49.456;2024-01-27T09:50:41;2.83;;;1.85;;
67554;SDS011;54385;53.516;49.456;2024-01-27T09:53:08;2.97;;;1.80;;
67554;SDS011;54385;53.516;49.456;2024-01-27T09:55:36;2.28;;;1.58;;
67554;SDS011;54385;53.516;49.456;2024-01-27T09:58:03;2.38;;;1.70;;
67554;SDS011;54385;53.516;49.456;2024-01-27T10:00:31;2.90;;;1.98;;
67554;SDS011;54385;53.516;49.456;2024-01-27T10:03:00;2.88;;;1.85;;
67554;SDS011;54385;53.516;49.456;2024-01-27T10:05:28;2.83;;;2.05;;
67554;SDS011;54385;53.516;49.456;2024-01-27T10:07:57;2.13;;;1.70;;
67554;SDS011;54385;53.516;49.456;2024-01-27T10:10:29;3.10;;;2.13;;
67554;SDS011;54385;53.516;49.456;2024-01-27T10:12:56;2.90;;;1.83;;
67554;SDS011;54385;53.516;49.456;2024-01-27T10:15:28;3.35;;;2.10;;
67554;SDS011;54385;53.516;49.456;2024-01-27T10:18:07;2.92;;;1.90;;
67554;SDS011;54385;53.516;49.456;2024-01-27T10:20:39;2.80;;;2.17;;
67554;SDS011;54385;53.516;49.456;2024-01-27T10:23:12;3.30;;;1.80;;
67554;SDS011;54385;53.516;49.456;2024-01-27T10:25:40;2.85;;;1.98;;
67554;SDS011;54385;53.516;49.456;2024-01-27T10:28:07;2.90;;;2.00;;
67554;SDS011;54385;53.516;49.456;2024-01-27T10:30:35;3.40;;;1.77;;
67554;SDS011;54385;53.516;49.456;2024-01-27T10:33:03;2.38;;;1.90;;
67554;SDS011;54385;53.516;49.456;2024-01-27T10:35:30;2.53;;;1.80;;
67554;SDS011;54385;53.516;49.456;2024-01-27T10:37:57;2.55;;;1.70;;
67554;SDS011;54385;53.516;49.456;2024-01-27T10:40:24;3.55;;;1.90;;
67554;SDS011;54385;53.516;49.456;2024-01-27T10:42:56;3.17;;;2.13;;
67554;SDS011;54385;53.516;49.456;2024-01-27T10:45:27;2.70;;;1.85;;
67554;SDS011;54385;53.516;49.456;2024-01-27T10:48:19;3.13;;;2.00;;
67554;SDS011;54385;53.516;49.456;2024-01-27T10:50:46;3.78;;;2.20;;
67554;SDS011;54385;53.516;49.456;2024-01-27T10:53:22;2.55;;;1.85;;
67554;SDS011;54385;53.516;49.456;2024-01-27T10:55:57;3.22;;;2.22;;
67554;SDS011;54385;53.516;49.456;2024-01-27T10:58:24;3.03;;;2.22;;
67554;SDS011;54385;53.516;49.456;2024-01-27T11:00:52;3.30;;;2.30;;
67554;SDS011;54385;53.516;49.456;2024-01-27T11:03:19;3.72;;;2.30;;
67554;SDS011;54385;53.516;49.456;2024-01-27T11:05:47;3.40;;;2.17;;
67554;SDS011;54385;53.516;49.456;2024-01-27T11:08:14;4.30;;;2.45;;
67554;SDS011;54385;53.516;49.456;2024-01-27T11:10:46;2.47;;;2.13;;
67554;SDS011;54385;53.516;49.456;2024-01-27T11:13:13;3.08;;;2.40;;
67554;SDS011;54385;53.516;49.456;2024-01-27T11:18:19;4.03;;;2.30;;
67554;SDS011;54385;53.516;49.456;2024-01-27T11:20:54;2.85;;;2.10;;
67554;SDS011;54385;53.516;49.456;2024-01-27T11:23:30;3.75;;;2.60;;
67554;SDS011;54385;53.516;49.456;2024-01-27T11:26:09;3.28;;;2.15;;
67554;SDS011;54385;53.516;49.456;2024-01-27T11:28:36;3.80;;;2.58;;
67554;SDS011;54385;53.516;49.456;2024-01-27T11:31:06;3.03;;;2.17;;
67554;SDS011;54385;53.516;49.456;2024-01-27T11:33:46;4.40;;;2.30;;
67554;SDS011;54385;53.516;49.456;2024-01-27T11:36:45;2.80;;;2.05;;
67554;SDS011;54385;53.516;49.456;2024-01-27T11:39:26;3.53;;;2.30;;
67554;SDS011;54385;53.516;49.456;2024-01-27T11:42:08;3.90;;;2.47;;
67554;SDS011;54385;53.516;49.456;2024-01-27T11:44:40;4.85;;;2.72;;
67554;SDS011;54385;53.516;49.456;2024-01-27T11:47:17;4.60;;;2.70;;
67554;SDS011;54385;53.516;49.456;2024-01-27T11:49:51;3.78;;;2.42;;
67554;SDS011;54385;53.516;49.456;2024-01-27T11:52:23;3.47;;;2.50;;
67554;SDS011;54385;53.516;49.456;2024-01-27T11:54:54;3.72;;;2.55;;
67554;SDS011;54385;53.516;49.456;2024-01-27T11:57:22;2.35;;;2.13;;
67554;SDS011;54385;53.516;49.456;2024-01-27T11:59:50;4.57;;;2.40;;
67554;SDS011;54385;53.516;49.456;2024-01-27T12:02:20;4.13;;;2.83;;
67554;SDS011;54385;53.516;49.456;2024-01-27T12:04:48;3.65;;;2.60;;
67554;SDS011;54385;53.516;49.456;2024-01-27T12:07:16;3.30;;;2.17;;
67554;SDS011;54385;53.516;49.456;2024-01-27T12:09:46;4.55;;;2.65;;
67554;SDS011;54385;53.516;49.456;2024-01-27T12:12:14;3.72;;;2.42;;
67554;SDS011;54385;53.516;49.456;2024-01-27T12:14:44;3.95;;;2.20;;
67554;SDS011;54385;53.516;49.456;2024-01-27T12:17:12;3.42;;;2.50;;
67554;SDS011;54385;53.516;49.456;2024-01-27T12:19:48;4.72;;;2.90;;
67554;SDS011;54385;53.516;49.456;2024-01-27T12:22:26;5.03;;;2.67;;
67554;SDS011;54385;53.516;49.456;2024-01-27T12:25:12;3.65;;;2.28;;
67554;SDS011;54385;53.516;49.456;2024-01-27T12:27:42;4.20;;;2.90;;
67554;SDS011;54385;53.516;49.456;2024-01-27T12:30:09;3.35;;;2.30;;
67554;SDS011;54385;53.516;49.456;2024-01-27T12:32:37;3.28;;;2.13;;
67554;SDS011;54385;53.516;49.456;2024-01-27T12:35:08;4.53;;;2.92;;
67554;SDS011;54385;53.516;49.456;2024-01-27T12:37:37;3.40;;;2.50;;
67554;SDS011;54385;53.516;49.456;2024-01-27T12:40:19;3.78;;;2.42;;
67554;SDS011;54385;53.516;49.456;2024-01-27T12:42:49;4.25;;;2.58;;
67554;SDS011;54385;53.516;49.456;2024-01-27T12:45:20;3.58;;;2.08;;
67554;SDS011;54385;53.516;49.456;2024-01-27T12:47:47;4.68;;;2.50;;
67554;SDS011;54385;53.516;49.456;2024-01-27T12:50:14;3.42;;;2.40;;
67554;SDS011;54385;53.516;49.456;2024-01-27T12:52:42;3.13;;;2.15;;
67554;SDS011;54385;53.516;49.456;2024-01-27T12:55:13;3.92;;;2.58;;
67554;SDS011;54385;53.516;49.456;2024-01-27T12:57:40;3.38;;;2.40;;
67554;SDS011;54385;53.516;49.456;2024-01-27T13:00:07;3.13;;;2.28;;
67554;SDS011;54385;53.516;49.456;2024-01-27T13:02:37;3.60;;;2.53;;
67554;SDS011;54385;53.516;49.456;2024-01-27T13:05:05;3.97;;;2.80;;
67554;SDS011;54385;53.516;49.456;2024-01-27T13:07:32;4.90;;;2.78;;
67554;SDS011;54385;53.516;49.456;2024-01-27T13:10:01;3.63;;;2.40;;
67554;SDS011;54385;53.516;49.456;2024-01-27T13:12:31;3.10;;;2.20;;
67554;SDS011;54385;53.516;49.456;2024-01-27T13:14:57;3.60;;;2.67;;
67554;SDS011;54385;53.516;49.456;2024-01-27T13:17:24;4.05;;;2.35;;
67554;SDS011;54385;53.516;49.456;2024-01-27T13:19:51;3.20;;;2.20;;
67554;SDS011;54385;53.516;49.456;2024-01-27T13:22:17;3.45;;;2.10;;
67554;SDS011;54385;53.516;49.456;2024-01-27T13:24:54;5.20;;;2.42;;
67554;SDS011;54385;53.516;49.456;2024-01-27T13:27:25;3.65;;;2.42;;
67554;SDS011;54385;53.516;49.456;2024-01-27T13:29:52;3.03;;;2.38;;
67554;SDS011;54385;53.516;49.456;2024-01-27T13:32:18;3.83;;;2.58;;
67554;SDS011;54385;53.516;49.456;2024-01-27T13:34:45;4.93;;;2.47;;
67554;SDS011;54385;53.516;49.456;2024-01-27T13:37:13;4.30;;;2.75;;
67554;SDS011;54385;53.516;49.456;2024-01-27T13:39:42;3.00;;;2.30;;
67554;SDS011;54385;53.516;49.456;2024-01-27T13:42:08;3.63;;;2.17;;
67554;SDS011;54385;53.516;49.456;2024-01-27T13:44:38;3.15;;;2.30;;
67554;SDS011;54385;53.516;49.456;2024-01-27T13:47:05;3.13;;;2.17;;
67554;SDS011;54385;53.516;49.456;2024-01-27T13:49:53;4.43;;;2.42;;
67554;SDS011;54385;53.516;49.456;2024-01-27T13:52:22;3.75;;;2.47;;
67554;SDS011;54385;53.516;49.456;2024-01-27T13:54:49;3.22;;;2.35;;
67554;SDS011;54385;53.516;49.456;2024-01-27T13:57:16;5.70;;;2.60;;
67554;SDS011;54385;53.516;49.456;2024-01-27T13:59:43;3.63;;;2.35;;
67554;SDS011;54385;53.516;49.456;2024-01-27T14:02:09;2.65;;;1.95;;
67554;SDS011;54385;53.516;49.456;2024-01-27T14:04:38;3.38;;;2.40;;
67554;SDS011;54385;53.516;49.456;2024-01-27T14:07:05;2.92;;;2.25;;
67554;SDS011;54385;53.516;49.456;2024-01-27T14:09:34;3.80;;;2.20;;
67554;SDS011;54385;53.516;49.456;2024-01-27T14:12:01;3.58;;;2.15;;
67554;SDS011;54385;53.516;49.456;2024-01-27T14:14:27;2.78;;;1.98;;
67554;SDS011;54385;53.516;49.456;2024-01-27T14:16:54;3.25;;;2.35;;
67554;SDS011;54385;53.516;49.456;2024-01-27T14:19:21;5.45;;;2.80;;
67554;SDS011;54385;53.516;49.456;2024-01-27T14:21:47;2.70;;;2.10;;
67554;SDS011;54385;53.516;49.456;2024-01-27T14:24:14;4.88;;;2.28;;
67554;SDS011;54385;53.516;49.456;2024-01-27T14:26:41;3.20;;;2.30;;
67554;SDS011;54385;53.516;49.456;2024-01-27T14:29:07;2.72;;;1.70;;
67554;SDS011;54385;53.516;49.456;2024-01-27T14:31:34;3.97;;;2.63;;
67554;SDS011;54385;53.516;49.456;2024-01-27T14:34:01;2.33;;;1.85;;
67554;SDS011;54385;53.516;49.456;2024-01-27T14:36:27;3.28;;;2.15;;
67554;SDS011;54385;53.516;49.456;2024-01-27T14:38:54;3.58;;;2.50;;
67554;SDS011;54385;53.516;49.456;2024-01-27T14:41:21;4.10;;;2.53;;